Time;durP1;ratioP1;P1;durP2;ratioP2;P2;SDS_P1;SDS_P2;PMS_P1;PMS_P2;Temp;Humidity;BMP_temperature;BMP_pressure;BME280_temperature;BME280_humidity;BME280_pressure;Samples;Min_cycle;Max_cycle;Signal;HPM_P1;HPM_P2
2023/01/18 00:01:09;;;;;;;67.33;27.30;;;;;;;-0.79;100.00;98635.28;5031944;28;20033;-76
2023/01/18 00:03:37;;;;;;;61.07;27.33;;;;;;;-0.75;100.00;98631.38;5029638;28;20104;-76
2023/01/18 00:06:04;;;;;;;59.73;26.57;;;;;;;-0.75;100.00;98636.69;5032953;28;20033;-76
2023/01/18 00:08:30;;;;;;;60.20;24.80;;;;;;;-0.54;100.00;98634.69;5032786;28;20028;-76
2023/01/18 00:11:08;;;;;;;64.00;26.37;;;;;;;-0.68;100.00;98640.44;5032584;28;20033;-76
2023/01/18 00:13:34;;;;;;;59.00;25.90;;;;;;;-0.61;100.00;98636.25;5032796;28;20028;-76
2023/01/18 00:16:04;;;;;;;59.57;23.70;;;;;;;-0.55;100.00;98638.31;5039886;28;20024;-77
2023/01/18 00:18:30;;;;;;;62.57;26.00;;;;;;;-0.57;100.00;98641.13;5032543;28;20017;-77
2023/01/18 00:20:59;;;;;;;62.03;25.83;;;;;;;-0.51;100.00;98645.03;5030298;28;20040;-76
2023/01/18 00:23:24;;;;;;;61.30;25.20;;;;;;;-0.56;100.00;98647.28;5029879;28;20017;-77
2023/01/18 00:25:50;;;;;;;59.77;25.47;;;;;;;-0.57;100.00;98640.28;5026837;28;20029;-76
2023/01/18 00:28:20;;;;;;;64.40;25.23;;;;;;;-0.69;100.00;98644.09;5032182;28;20108;-77
2023/01/18 00:30:46;;;;;;;60.03;26.13;;;;;;;-0.76;100.00;98650.94;5032448;28;20032;-76
2023/01/18 00:33:11;;;;;;;61.40;26.83;;;;;;;-0.71;100.00;98654.03;5032354;28;20025;-76
2023/01/18 00:35:37;;;;;;;62.87;26.13;;;;;;;-0.70;100.00;98655.69;5032120;28;20025;-76
2023/01/18 00:38:02;;;;;;;67.50;27.10;;;;;;;-0.74;100.00;98654.28;5031750;28;20028;-76
2023/01/18 00:40:29;;;;;;;61.87;25.77;;;;;;;-0.79;100.00;98651.22;5016052;28;20017;-76
2023/01/18 00:45:39;;;;;;;51.07;25.17;;;;;;;-0.79;100.00;98660.03;5049673;28;20017;-76
2023/01/18 00:48:05;;;;;;;65.23;26.07;;;;;;;-0.87;100.00;98660.72;5024312;28;20033;-75
2023/01/18 00:50:31;;;;;;;62.23;27.30;;;;;;;-0.87;100.00;98655.41;5028369;28;20027;-76
2023/01/18 00:52:58;;;;;;;71.53;26.87;;;;;;;-0.92;100.00;98660.31;5025196;28;20038;-75
2023/01/18 00:55:25;;;;;;;67.63;29.70;;;;;;;-1.00;100.00;98660.16;5025273;28;20068;-76
2023/01/18 00:57:50;;;;;;;76.53;27.57;;;;;;;-0.90;100.00;98645.09;5016473;28;20096;-76
2023/01/18 01:00:18;;;;;;;70.80;26.87;;;;;;;-0.87;100.00;98658.06;5013274;28;20029;-76
2023/01/18 01:02:44;;;;;;;62.73;26.00;;;;;;;-0.84;100.00;98647.19;5014506;28;20021;-76
2023/01/18 01:08:01;;;;;;;49.73;23.93;;;;;;;-0.82;100.00;98658.50;5028587;28;20032;-76
2023/01/18 01:10:26;;;;;;;59.30;26.87;;;;;;;-0.80;100.00;98660.16;5022627;28;20033;-75
2023/01/18 01:26:31;;;;;;;64.10;26.93;;;;;;;-0.70;100.00;98671.63;5036733;28;20035;-76
2023/01/18 01:28:57;;;;;;;54.83;25.73;;;;;;;-0.76;100.00;98666.88;5030612;28;20029;-75
2023/01/18 01:31:22;;;;;;;52.77;25.10;;;;;;;-0.71;100.00;98672.63;5030718;28;20486;-75
2023/01/18 01:33:48;;;;;;;69.57;28.37;;;;;;;-0.79;100.00;98677.78;5025791;28;20037;-75
2023/01/18 01:36:16;;;;;;;61.80;28.30;;;;;;;-0.78;100.00;98674.13;5030296;28;20025;-76
2023/01/18 01:38:42;;;;;;;68.57;27.20;;;;;;;-0.78;100.00;98685.63;5022442;28;20029;-76
2023/01/18 01:41:20;;;;;;;65.00;26.97;;;;;;;-0.83;100.00;98677.22;5019142;28;20468;-76
2023/01/18 01:43:51;;;;;;;65.00;27.07;;;;;;;-0.75;100.00;98681.84;5021135;28;20055;-77
2023/01/18 01:46:34;;;;;;;52.58;25.52;;;;;;;-0.85;100.00;98680.03;5038364;28;20032;-76
2023/01/18 01:49:01;;;;;;;59.67;27.33;;;;;;;-0.92;100.00;98684.19;5030072;28;20033;-75
2023/01/18 01:51:27;;;;;;;61.63;29.03;;;;;;;-1.00;100.00;98689.38;5037652;28;20409;-76
2023/01/18 01:53:52;;;;;;;58.30;26.00;;;;;;;-0.88;100.00;98680.31;5024522;28;20029;-75
2023/01/18 01:56:20;;;;;;;62.40;28.57;;;;;;;-0.77;100.00;98686.47;5029168;28;20021;-75
2023/01/18 01:58:49;;;;;;;62.33;27.73;;;;;;;-0.89;100.00;98683.94;5028595;28;20028;-76
2023/01/18 02:01:15;;;;;;;66.73;29.10;;;;;;;-0.68;100.00;98686.44;5030833;28;20385;-76
2023/01/18 02:03:41;;;;;;;64.17;31.33;;;;;;;-0.99;100.00;98688.41;5030509;28;20013;-75
2023/01/18 02:06:31;;;;;;;58.60;27.93;;;;;;;-0.83;100.00;98687.84;5024274;28;20441;-75
2023/01/18 02:09:01;;;;;;;60.40;27.90;;;;;;;-0.82;100.00;98685.06;5018406;28;20028;-75
2023/01/18 02:11:28;;;;;;;70.03;28.17;;;;;;;-0.69;100.00;98689.25;5027648;28;20055;-76
2023/01/18 02:13:57;;;;;;;70.37;27.10;;;;;;;-0.65;100.00;98686.19;5025268;28;20043;-77
2023/01/18 02:16:40;;;;;;;65.13;27.63;;;;;;;-0.67;100.00;98692.59;5027485;28;20024;-76
2023/01/18 02:19:34;;;;;;;61.87;27.60;;;;;;;-0.82;100.00;98685.06;5028426;28;20371;-76
2023/01/18 02:22:18;;;;;;;64.77;28.57;;;;;;;-0.61;100.00;98692.03;5020803;28;20029;-75
2023/01/18 02:24:55;;;;;;;62.77;26.80;;;;;;;-0.67;100.00;98681.97;5025603;28;20029;-75
2023/01/18 02:27:26;;;;;;;58.60;26.57;;;;;;;-0.77;100.00;98689.13;5029748;28;20024;-76
2023/01/18 02:30:05;;;;;;;66.97;30.10;;;;;;;-0.71;100.00;98692.06;5027299;28;20040;-76
2023/01/18 02:32:55;;;;;;;73.03;28.63;;;;;;;-0.80;100.00;98690.22;5021041;28;20099;-76
2023/01/18 02:35:48;;;;;;;64.70;28.60;;;;;;;-0.74;100.00;98696.78;5028020;28;20021;-75
2023/01/18 02:38:24;;;;;;;68.13;27.73;;;;;;;-0.75;100.00;98701.28;5017366;28;20022;-76
2023/01/18 02:47:14;;;;;;;78.45;30.77;;;;;;;-0.95;100.00;98695.13;5044588;28;20036;-76
2023/01/18 02:49:40;;;;;;;71.73;29.27;;;;;;;-0.97;100.00;98701.56;5030349;28;20025;-76
2023/01/18 02:52:07;;;;;;;72.10;30.60;;;;;;;-1.15;100.00;98698.72;5025313;28;20132;-77
2023/01/18 02:54:36;;;;;;;73.60;31.93;;;;;;;-1.18;100.00;98699.00;5025215;28;20142;-76
2023/01/18 02:57:07;;;;;;;79.40;32.37;;;;;;;-1.19;100.00;98707.94;5027285;28;20121;-77
2023/01/18 02:59:39;;;;;;;69.82;29.08;;;;;;;-1.13;100.00;98707.41;5028191;28;20052;-76
2023/01/18 03:02:09;;;;;;;74.47;30.80;;;;;;;-1.11;100.00;98700.13;5025245;28;20025;-76
2023/01/18 03:04:53;;;;;;;67.07;27.30;;;;;;;-0.92;100.00;98689.50;5028224;28;20013;-76
2023/01/18 03:08:03;;;;;;;79.50;30.63;;;;;;;-1.05;100.00;98707.53;5024961;28;20049;-76
2023/01/18 03:10:31;;;;;;;67.37;28.70;;;;;;;-1.21;100.00;98702.78;5033055;28;20064;-77
2023/01/18 03:13:08;;;;;;;68.23;27.47;;;;;;;-1.10;100.00;98704.47;5028031;28;20022;-75
2023/01/18 03:15:47;;;;;;;79.17;30.73;;;;;;;-1.18;100.00;98710.44;5035903;28;20112;-76
2023/01/18 03:18:36;;;;;;;62.50;29.67;;;;;;;-0.97;100.00;98715.69;5024638;28;20020;-77
2023/01/18 03:21:04;;;;;;;61.70;29.23;;;;;;;-0.98;100.00;98714.00;5030111;28;20032;-76
2023/01/18 03:23:38;;;;;;;62.13;27.57;;;;;;;-0.90;100.00;98713.31;5032768;28;20096;-76
2023/01/18 03:26:05;;;;;;;66.80;28.53;;;;;;;-0.77;100.00;98707.72;5040057;28;20028;-76
2023/01/18 03:34:16;;;;;;;68.40;29.00;;;;;;;-0.67;100.00;98721.81;5050844;28;20033;-75
2023/01/18 03:36:48;;;;;;;58.60;27.07;;;;;;;-0.68;100.00;98717.50;5012599;28;20018;-75
2023/01/18 03:39:23;;;;;;;;;;;;;;;-0.72;100.00;98721.41;5014744;28;20025;-76
2023/01/18 03:41:54;;;;;;;66.80;25.63;;;;;;;-0.57;100.00;98720.84;5018510;28;19916;-76
2023/01/18 03:44:33;;;;;;;60.53;26.67;;;;;;;-0.58;100.00;98715.69;5025962;28;20021;-76
2023/01/18 03:46:59;;;;;;;58.73;26.00;;;;;;;-0.62;100.00;98716.94;5027583;28;20492;-76
2023/01/18 03:49:26;;;;;;;56.33;25.83;;;;;;;-0.60;100.00;98712.31;5037101;28;20022;-76
2023/01/18 03:52:07;;;;;;;59.63;26.17;;;;;;;-0.56;100.00;98711.06;5023161;28;20032;-76
2023/01/18 03:54:54;;;;;;;55.38;23.90;;;;;;;-0.61;100.00;98713.28;5024007;28;20028;-76
2023/01/18 03:57:22;;;;;;;66.73;29.33;;;;;;;-0.99;100.00;98714.94;5027377;28;20028;-77
2023/01/18 03:59:47;;;;;;;65.17;28.37;;;;;;;-1.08;100.00;98715.78;5033556;28;20017;-76
2023/01/18 04:02:15;;;;;;;63.03;26.90;;;;;;;-0.86;100.00;98720.00;5029094;28;20091;-76
2023/01/18 04:04:41;;;;;;;55.07;23.60;;;;;;;-0.77;100.00;98723.66;5037271;28;20014;-76
2023/01/18 04:07:06;;;;;;;61.40;25.40;;;;;;;-0.86;100.00;98715.53;5035755;28;20033;-76
2023/01/18 04:09:31;;;;;;;50.57;23.93;;;;;;;-0.71;100.00;98712.47;5028658;28;20037;-76
2023/01/18 04:11:57;;;;;;;58.50;25.47;;;;;;;-0.62;100.00;98711.63;5033094;28;20060;-75
2023/01/18 04:14:22;;;;;;;52.07;26.17;;;;;;;-0.78;100.00;98722.81;5043077;28;20025;-76
2023/01/18 04:16:48;;;;;;;45.43;21.83;;;;;;;-0.89;100.00;98721.13;5049566;28;20079;-76
2023/01/18 04:19:17;;;;;;;53.60;22.07;;;;;;;-0.67;100.00;98724.47;5028560;28;20029;-76
2023/01/18 04:21:42;;;;;;;50.70;23.70;;;;;;;-0.68;100.00;98725.47;5039904;28;20032;-76
2023/01/18 04:24:08;;;;;;;70.13;24.70;;;;;;;-0.93;100.00;98729.50;5028797;28;20025;-76
2023/01/18 04:26:33;;;;;;;60.90;25.20;;;;;;;-0.95;100.00;98742.91;5032041;28;20029;-76
2023/01/18 04:28:59;;;;;;;60.90;24.50;;;;;;;-1.10;100.00;98739.84;5028436;28;20025;-77
2023/01/18 04:31:25;;;;;;;49.40;24.43;;;;;;;-1.11;100.00;98742.59;5046760;28;20025;-76
2023/01/18 04:33:50;;;;;;;60.73;25.80;;;;;;;-1.02;100.00;98747.09;5032639;28;20068;-76
2023/01/18 04:36:17;;;;;;;59.77;25.63;;;;;;;-1.11;100.00;98747.91;5043232;28;20064;-75
2023/01/18 04:38:43;;;;;;;63.57;28.10;;;;;;;-1.24;100.00;98752.63;5029604;28;20034;-76
2023/01/18 04:41:08;;;;;;;71.77;28.27;;;;;;;-1.22;100.00;98750.69;5016697;28;20036;-76
2023/01/18 04:43:33;;;;;;;61.93;28.10;;;;;;;-1.18;100.00;98752.09;5011162;28;20030;-75
2023/01/18 04:45:59;;;;;;;57.57;24.40;;;;;;;-1.07;100.00;98749.31;5027789;28;20083;-76
2023/01/18 04:48:24;;;;;;;62.63;25.50;;;;;;;-1.22;100.00;98756.84;5037760;28;20436;-76
2023/01/18 04:50:50;;;;;;;67.13;26.70;;;;;;;-1.31;100.00;98759.47;5026195;28;20120;-76
2023/01/18 04:53:16;;;;;;;72.77;28.60;;;;;;;-1.35;100.00;98760.72;5020576;28;20077;-76
2023/01/18 04:55:42;;;;;;;71.73;29.47;;;;;;;-1.46;100.00;98759.84;5026293;28;20056;-76
2023/01/18 04:58:08;;;;;;;68.00;29.00;;;;;;;-1.49;100.00;98760.13;5026652;28;20056;-76
2023/01/18 05:00:33;;;;;;;72.17;27.03;;;;;;;-1.41;100.00;98762.94;5048784;28;20064;-76
2023/01/18 05:02:59;;;;;;;69.70;27.60;;;;;;;-1.43;100.00;98767.53;5028549;28;20092;-76
2023/01/18 05:05:24;;;;;;;60.87;26.13;;;;;;;-1.28;100.00;98759.22;5029035;28;20032;-77
2023/01/18 05:07:49;;;;;;;60.47;26.63;;;;;;;-1.25;100.00;98761.56;5035990;28;20029;-76
2023/01/18 05:10:15;;;;;;;53.07;24.87;;;;;;;-1.20;100.00;98775.28;5045036;28;20028;-76
2023/01/18 05:12:40;;;;;;;52.17;25.57;;;;;;;-1.11;100.00;98763.84;5024589;28;20029;-76
2023/01/18 05:15:06;;;;;;;60.30;27.23;;;;;;;-1.17;100.00;98769.72;5050386;28;20036;-76
2023/01/18 05:17:33;;;;;;;59.37;25.47;;;;;;;-1.18;100.00;98778.63;5032713;28;20126;-76
2023/01/18 05:19:59;;;;;;;68.60;26.93;;;;;;;-1.12;100.00;98778.09;5032486;28;20033;-76
2023/01/18 05:22:26;;;;;;;76.97;30.40;;;;;;;-1.15;100.00;98778.38;5016350;28;20040;-76
2023/01/18 05:24:52;;;;;;;66.93;28.03;;;;;;;-1.07;100.00;98791.81;5024347;28;20029;-76
2023/01/18 05:27:17;;;;;;;62.60;26.17;;;;;;;-1.13;100.00;98789.69;5032999;28;20031;-76
2023/01/18 05:29:43;;;;;;;62.57;25.50;;;;;;;-1.22;100.00;98798.47;5032442;28;20135;-76
2023/01/18 05:32:10;;;;;;;66.40;27.87;;;;;;;-1.31;100.00;98809.88;5026723;28;20437;-76
2023/01/18 05:34:35;;;;;;;65.33;28.90;;;;;;;-1.42;100.00;98809.03;5029725;28;20037;-75
2023/01/18 05:37:01;;;;;;;67.10;30.03;;;;;;;-1.53;100.00;98809.09;5020258;28;20033;-76
2023/01/18 05:39:26;;;;;;;74.43;29.30;;;;;;;-1.50;100.00;98822.13;5028186;28;20040;-77
2023/01/18 05:41:52;;;;;;;70.27;27.77;;;;;;;-1.58;100.00;98813.97;5015814;28;20068;-76
2023/01/18 05:44:17;;;;;;;87.70;32.37;;;;;;;-1.73;100.00;98810.81;5032725;28;20021;-76
2023/01/18 05:46:42;;;;;;;78.17;32.53;;;;;;;-1.81;100.00;98813.28;5030301;28;20029;-76
2023/01/18 05:49:08;;;;;;;68.83;31.43;;;;;;;-1.82;100.00;98816.09;5032376;28;20071;-75
2023/01/18 05:51:34;;;;;;;73.47;30.73;;;;;;;-1.93;100.00;98823.13;5020280;28;20033;-76
2023/01/18 05:53:59;;;;;;;88.93;34.27;;;;;;;-1.97;100.00;98829.66;5021450;28;20121;-76
2023/01/18 05:56:25;;;;;;;69.03;31.70;;;;;;;-1.94;100.00;98833.88;5032473;28;20522;-76
2023/01/18 05:58:50;;;;;;;76.03;32.60;;;;;;;-1.95;100.00;98848.94;5034516;28;20107;-76
2023/01/18 06:01:15;;;;;;;72.87;31.63;;;;;;;-1.82;100.00;98837.31;5041180;28;20025;-76
2023/01/18 06:03:41;;;;;;;76.07;32.80;;;;;;;-1.80;100.00;98840.66;5052727;28;20029;-76
2023/01/18 06:06:07;;;;;;;66.03;30.67;;;;;;;-1.83;100.00;98846.19;5035702;28;20028;-76
2023/01/18 06:08:33;;;;;;;71.77;30.57;;;;;;;-1.69;100.00;98853.84;5027432;28;20030;-76
2023/01/18 06:10:59;;;;;;;68.63;31.60;;;;;;;-1.51;100.00;98856.72;5036697;28;20528;-76
2023/01/18 06:13:28;;;;;;;62.97;30.07;;;;;;;-1.67;100.00;98862.50;5045842;28;20064;-76
2023/01/18 06:15:54;;;;;;;68.20;31.17;;;;;;;-1.53;100.00;98864.81;5027674;28;20040;-75
2023/01/18 06:18:20;;;;;;;75.53;30.37;;;;;;;-1.62;100.00;98865.63;5028753;28;20033;-76
2023/01/18 06:20:46;;;;;;;72.57;30.87;;;;;;;-1.51;100.00;98873.50;5035114;28;20036;-76
2023/01/18 06:23:11;;;;;;;74.67;30.40;;;;;;;-1.61;100.00;98869.97;5035920;28;20028;-75
2023/01/18 06:25:37;;;;;;;61.90;28.80;;;;;;;-1.56;100.00;98870.41;5027342;28;20100;-76
2023/01/18 06:28:03;;;;;;;72.70;31.50;;;;;;;-1.44;100.00;98869.34;5035649;28;20111;-76
2023/01/18 06:30:29;;;;;;;67.70;27.70;;;;;;;-1.59;100.00;98875.97;5028723;28;20037;-76
2023/01/18 06:32:55;;;;;;;65.97;29.73;;;;;;;-1.44;100.00;98874.63;5024673;28;20092;-76
2023/01/18 06:35:20;;;;;;;72.40;28.60;;;;;;;-1.44;100.00;98882.59;5036061;28;20203;-76
2023/01/18 06:37:46;;;;;;;59.27;27.37;;;;;;;-1.42;100.00;98875.38;5051854;28;20032;-76
2023/01/18 06:40:12;;;;;;;70.90;30.43;;;;;;;-1.58;100.00;98885.59;5030138;28;20026;-76
2023/01/18 06:42:38;;;;;;;69.73;29.73;;;;;;;-1.58;100.00;98882.94;5025380;28;20025;-76
2023/01/18 06:45:04;;;;;;;71.80;29.43;;;;;;;-1.52;100.00;98893.03;5035626;28;20080;-76
2023/01/18 06:47:30;;;;;;;64.20;30.07;;;;;;;-1.51;100.00;98889.41;5053685;28;20070;-76
2023/01/18 06:49:55;;;;;;;68.47;29.97;;;;;;;-1.35;100.00;98893.44;5024126;28;20064;-76
2023/01/18 06:52:21;;;;;;;66.67;30.43;;;;;;;-1.31;100.00;98890.34;5015318;28;20103;-76
2023/01/18 06:54:46;;;;;;;69.77;28.93;;;;;;;-1.41;100.00;98895.63;5028815;28;20079;-76
2023/01/18 06:57:12;;;;;;;68.03;29.23;;;;;;;-1.53;100.00;98901.97;5032775;28;20033;-76
2023/01/18 06:59:38;;;;;;;80.73;32.80;;;;;;;-1.59;100.00;98906.97;5040556;28;20088;-76
2023/01/18 07:02:04;;;;;;;66.17;31.50;;;;;;;-1.71;100.00;98909.66;5048594;28;20041;-76
2023/01/18 07:04:31;;;;;;;55.53;29.10;;;;;;;-1.71;100.00;98903.53;5048846;28;20027;-76
2023/01/18 07:06:57;;;;;;;69.70;29.83;;;;;;;-1.73;100.00;98910.78;5034720;28;20028;-76
2023/01/18 07:09:23;;;;;;;68.90;31.07;;;;;;;-1.72;100.00;98917.75;5034313;28;20025;-76
2023/01/18 07:11:48;;;;;;;64.50;29.97;;;;;;;-1.70;100.00;98915.81;5035004;28;20025;-76
2023/01/18 07:14:14;;;;;;;81.37;33.17;;;;;;;-1.73;100.00;98926.69;5055135;28;20478;-76
2023/01/18 07:16:39;;;;;;;76.43;30.37;;;;;;;-1.60;100.00;98922.03;5029060;28;20478;-76
2023/01/18 07:19:05;;;;;;;64.77;30.80;;;;;;;-1.60;100.00;98927.34;5028284;28;20476;-76
2023/01/18 07:21:30;;;;;;;69.77;30.67;;;;;;;-1.70;100.00;98932.56;5045847;28;20028;-76
2023/01/18 07:23:57;;;;;;;74.97;31.23;;;;;;;-1.70;100.00;98926.41;5029073;28;20025;-76
2023/01/18 07:26:23;;;;;;;65.57;30.03;;;;;;;-1.50;100.00;98938.88;5035012;28;20029;-76
2023/01/18 07:28:48;;;;;;;69.00;29.50;;;;;;;-1.39;100.00;98936.13;5026026;28;20097;-76
2023/01/18 07:31:15;;;;;;;66.70;29.07;;;;;;;-1.48;100.00;98936.94;5026053;28;20028;-75
2023/01/18 07:33:40;;;;;;;70.73;30.63;;;;;;;-1.65;100.00;98945.44;5024056;28;20041;-75
2023/01/18 07:36:08;;;;;;;67.07;30.30;;;;;;;-1.59;100.00;98939.63;5026353;28;20044;-75
2023/01/18 07:38:34;;;;;;;77.90;30.07;;;;;;;-1.45;100.00;98949.94;5046605;28;20028;-74
2023/01/18 07:41:01;;;;;;;64.83;30.43;;;;;;;-1.55;100.00;98951.69;5026254;28;20060;-74
2023/01/18 07:43:28;;;;;;;64.63;28.43;;;;;;;-1.43;100.00;98949.81;5023544;28;20068;-74
2023/01/18 07:45:54;;;;;;;63.20;28.60;;;;;;;-1.47;100.00;98949.22;5028139;28;20064;-74
2023/01/18 07:48:20;;;;;;;65.27;28.33;;;;;;;-1.39;100.00;98957.38;5033625;28;20102;-75
2023/01/18 07:50:57;;;;;;;68.53;29.17;;;;;;;-1.19;100.00;98958.31;5032799;28;20094;-74
2023/01/18 07:53:24;;;;;;;60.10;27.17;;;;;;;-1.07;100.00;98956.44;5020619;28;20021;-74
2023/01/18 07:55:49;;;;;;;64.67;26.80;;;;;;;-1.24;100.00;98959.69;5031879;28;20492;-74
2023/01/18 07:58:16;;;;;;;65.80;29.07;;;;;;;-1.07;100.00;98967.06;5020238;28;20025;-75
2023/01/18 08:00:42;;;;;;;67.87;27.73;;;;;;;-1.01;100.00;98979.81;5027217;28;20127;-75
2023/01/18 08:03:11;;;;;;;66.63;30.87;;;;;;;-1.21;100.00;98980.69;5010267;28;20123;-74
2023/01/18 08:05:36;;;;;;;62.00;29.03;;;;;;;-1.15;100.00;98982.81;5019268;28;20017;-74
2023/01/18 08:08:02;;;;;;;67.33;28.70;;;;;;;-1.02;100.00;98986.09;5027157;28;20016;-74
2023/01/18 08:10:28;;;;;;;67.47;29.63;;;;;;;-1.04;100.00;98990.72;5039621;28;20051;-73
2023/01/18 08:12:54;;;;;;;59.13;28.47;;;;;;;-1.00;100.00;98988.63;5024126;28;20037;-74
2023/01/18 08:15:19;;;;;;;63.93;29.83;;;;;;;-1.06;100.00;98992.66;5015136;28;20018;-74
2023/01/18 08:17:45;;;;;;;75.80;31.27;;;;;;;-1.12;100.00;98995.81;5022660;28;20671;-73
2023/01/18 08:20:11;;;;;;;67.83;31.50;;;;;;;-1.35;100.00;99002.25;5022079;28;20051;-74
2023/01/18 08:22:37;;;;;;;69.43;32.20;;;;;;;-1.34;100.00;99006.59;5027427;28;20033;-74
2023/01/18 08:25:03;;;;;;;84.33;31.50;;;;;;;-1.49;100.00;99004.25;5022377;28;20033;-74
2023/01/18 08:27:28;;;;;;;79.43;32.20;;;;;;;-1.53;100.00;99008.13;5022406;28;20024;-73
2023/01/18 08:29:53;;;;;;;77.60;32.30;;;;;;;-1.55;100.00;99019.84;5032486;28;20064;-74
2023/01/18 08:32:19;;;;;;;62.80;31.03;;;;;;;-1.60;100.00;99022.88;5017887;28;20031;-73
2023/01/18 08:34:44;;;;;;;66.83;29.97;;;;;;;-1.52;100.00;99025.72;5043357;28;20045;-73
2023/01/18 08:37:10;;;;;;;58.13;27.97;;;;;;;-1.57;100.00;99022.59;5019893;28;20040;-74
2023/01/18 08:39:36;;;;;;;55.77;29.07;;;;;;;-1.52;100.00;99031.03;5017112;28;20129;-74
2023/01/18 08:42:03;;;;;;;64.03;29.90;;;;;;;-1.53;100.00;99029.34;5030829;28;20021;-75
2023/01/18 08:44:28;;;;;;;59.03;29.53;;;;;;;-1.49;100.00;99030.78;5034304;28;20044;-72
2023/01/18 08:46:53;;;;;;;69.47;30.77;;;;;;;-1.61;100.00;99034.44;5014125;28;20481;-73
2023/01/18 08:49:19;;;;;;;57.70;28.97;;;;;;;-1.57;100.00;99043.81;5028909;28;20057;-73
2023/01/18 08:51:44;;;;;;;62.20;30.00;;;;;;;-1.55;100.00;99041.91;5015551;28;20020;-73
2023/01/18 08:54:09;;;;;;;62.87;27.90;;;;;;;-1.39;100.00;99049.44;5027758;28;20022;-73
2023/01/18 08:56:35;;;;;;;69.90;27.73;;;;;;;-1.28;100.00;99048.53;5025697;28;20035;-73
2023/01/18 08:59:01;;;;;;;60.70;27.47;;;;;;;-1.17;100.00;99052.00;5024238;28;20024;-73
2023/01/18 09:01:27;;;;;;;67.00;28.47;;;;;;;-1.05;100.00;99055.41;5021462;28;20033;-73
2023/01/18 09:03:54;;;;;;;59.87;28.40;;;;;;;-1.16;100.00;99058.13;5018650;28;20021;-74
2023/01/18 09:06:19;;;;;;;60.90;26.37;;;;;;;-1.14;100.00;99066.81;5020640;28;20108;-72
2023/01/18 09:08:48;;;;;;;55.17;27.63;;;;;;;-1.14;100.00;99072.97;5017733;28;20127;-76
2023/01/18 09:11:14;;;;;;;72.47;28.70;;;;;;;-1.04;100.00;99078.34;5028151;28;20079;-74
2023/01/18 09:13:40;;;;;;;58.47;28.40;;;;;;;-0.97;100.00;99074.22;5012041;28;20029;-74
2023/01/18 09:16:07;;;;;;;61.07;26.77;;;;;;;-1.20;100.00;99075.28;5016445;28;20036;-73
2023/01/18 09:18:34;;;;;;;64.13;27.87;;;;;;;-1.15;100.00;99086.38;5022525;28;20385;-74
2023/01/18 09:21:08;;;;;;;64.37;28.00;;;;;;;-0.95;100.00;99087.34;5021783;28;20025;-76
2023/01/18 09:23:34;;;;;;;57.97;26.47;;;;;;;-1.04;100.00;99088.97;5040455;28;20107;-74
2023/01/18 09:26:04;;;;;;;64.97;25.60;;;;;;;-0.98;100.00;99088.47;5021104;28;20036;-74
2023/01/18 09:28:30;;;;;;;65.73;27.43;;;;;;;-0.92;100.00;99092.41;5022495;28;20059;-75
2023/01/18 09:31:04;;;;;;;60.30;27.30;;;;;;;-0.98;100.00;99092.91;5039816;28;20107;-74
2023/01/18 09:33:30;;;;;;;52.30;26.50;;;;;;;-0.88;100.00;99094.69;5039967;28;20021;-76
2023/01/18 09:36:00;;;;;;;66.63;27.90;;;;;;;-0.89;100.00;99108.94;5026087;28;20052;-74
2023/01/18 09:38:26;;;;;;;60.00;28.70;;;;;;;-0.84;100.00;99111.22;5019450;28;20021;-74
2023/01/18 09:40:52;;;;;;;56.43;25.70;;;;;;;-0.75;100.00;99109.56;5022512;28;20087;-76
2023/01/18 09:43:39;;;;;;;50.53;25.33;;;;;;;-0.67;100.00;99117.72;5012900;28;20018;-74
2023/01/18 09:46:22;;;;;;;51.77;25.70;;;;;;;-0.47;100.00;99118.69;5021261;28;20132;-75
2023/01/18 09:48:57;;;;;;;49.93;23.60;;;;;;;-0.51;100.00;99120.78;5019594;28;20030;-75
2023/01/18 09:51:29;;;;;;;57.27;26.27;;;;;;;-0.41;100.00;99120.81;5036329;28;20030;-74
2023/01/18 09:54:28;;;;;;;54.73;24.10;;;;;;;-0.42;100.00;99122.66;5040371;28;20035;-73
2023/01/18 09:57:23;;;;;;;61.23;25.73;;;;;;;-0.31;100.00;99119.91;5024084;28;20032;-77
2023/01/18 09:59:54;;;;;;;52.20;24.27;;;;;;;-0.12;100.00;99123.66;5015218;28;20021;-74
2023/01/18 10:02:37;;;;;;;51.53;25.02;;;;;;;-0.07;100.00;99121.41;5041054;28;20486;-75
2023/01/18 10:05:10;;;;;;;53.63;24.50;;;;;;;0.12;100.00;99124.13;5031893;28;20102;-73
2023/01/18 10:07:45;;;;;;;64.43;26.27;;;;;;;0.04;100.00;99128.47;5022138;28;20029;-73
2023/01/18 10:10:17;;;;;;;49.83;23.53;;;;;;;0.20;100.00;99124.34;5022661;28;20102;-73
2023/01/18 10:13:02;;;;;;;54.17;23.20;;;;;;;0.08;100.00;99130.72;5036054;28;20025;-76
2023/01/18 10:15:33;;;;;;;51.17;24.17;;;;;;;0.39;100.00;99133.31;5036871;28;20028;-73
2023/01/18 10:17:59;;;;;;;41.45;19.98;;;;;;;0.37;100.00;99135.28;5019010;28;20588;-74
2023/01/18 10:20:34;;;;;;;49.90;24.17;;;;;;;0.39;100.00;99128.88;5031207;28;20228;-74
2023/01/18 10:23:10;;;;;;;53.87;24.37;;;;;;;0.28;100.00;99136.13;5022163;28;20041;-75
2023/01/18 10:25:44;;;;;;;48.50;22.97;;;;;;;0.59;100.00;99144.84;5025310;28;20067;-74
2023/01/18 10:28:24;;;;;;;57.50;23.90;;;;;;;0.74;100.00;99128.34;5022942;28;20049;-75
2023/01/18 10:31:02;;;;;;;44.93;22.13;;;;;;;0.60;100.00;99142.06;5051955;28;20045;-73
2023/01/18 10:33:34;;;;;;;45.97;24.00;;;;;;;0.92;100.00;99133.00;5026249;28;20018;-73
2023/01/18 10:36:07;;;;;;;49.17;21.97;;;;;;;1.01;100.00;99145.47;5030268;28;20017;-75
2023/01/18 10:38:33;;;;;;;50.03;22.57;;;;;;;1.00;100.00;99144.63;5027758;28;20087;-73
2023/01/18 10:41:01;;;;;;;53.80;23.17;;;;;;;0.98;100.00;99129.78;5013107;28;20506;-72
2023/01/18 10:43:29;;;;;;;56.40;23.67;;;;;;;1.02;100.00;99131.16;5022883;28;20419;-75
2023/01/18 10:45:55;;;;;;;51.33;22.20;;;;;;;1.06;100.00;99138.75;5019364;28;20033;-73
2023/01/18 10:48:30;;;;;;;52.30;23.57;;;;;;;0.92;100.00;99146.31;5014395;28;20052;-72
2023/01/18 10:51:01;;;;;;;45.97;22.67;;;;;;;1.19;100.00;99140.28;5017615;28;20497;-73
2023/01/18 10:53:38;;;;;;;38.08;18.85;;;;;;;1.24;100.00;99149.56;5020232;28;20093;-73
2023/01/18 10:56:15;;;;;;;48.90;22.47;;;;;;;1.27;100.00;99135.94;5027783;28;20021;-73
2023/01/18 10:58:49;;;;;;;47.33;21.37;;;;;;;1.47;100.00;99141.22;5023900;28;20020;-73
2023/01/18 11:01:24;;;;;;;44.57;22.17;;;;;;;1.47;100.00;99146.56;5029371;28;20032;-73
2023/01/18 11:04:06;;;;;;;41.70;20.57;;;;;;;1.83;100.00;99142.28;5034295;28;20021;-73
2023/01/18 11:06:47;;;;;;;41.17;20.33;;;;;;;1.98;100.00;99151.50;5010675;28;20056;-76
2023/01/18 11:09:37;;;;;;;41.22;19.05;;;;;;;1.77;100.00;99149.03;5015844;28;20013;-76
2023/01/18 11:12:44;;;;;;;47.13;20.60;;;;;;;2.08;100.00;99151.44;5013421;28;20049;-76
2023/01/18 11:15:12;;;;;;;41.97;20.80;;;;;;;1.85;100.00;99157.16;5020731;28;20143;-74
2023/01/18 11:18:02;;;;;;;42.88;19.80;;;;;;;2.22;100.00;99142.97;5017682;28;20028;-75
2023/01/18 11:20:48;;;;;;;43.15;19.63;;;;;;;2.27;100.00;99146.03;5029391;28;20067;-76
2023/01/18 11:23:14;;;;;;;34.07;18.43;;;;;;;2.22;99.89;99142.13;5033679;28;20128;-77
2023/01/18 11:25:56;;;;;;;39.17;18.80;;;;;;;2.52;99.45;99143.66;5036138;28;20109;-74
2023/01/18 11:28:43;;;;;;;39.45;18.95;;;;;;;2.55;99.69;99143.38;5021325;28;20030;-74
2023/01/18 11:31:20;;;;;;;40.95;19.02;;;;;;;2.59;98.50;99144.75;5022883;28;20036;-77
2023/01/18 11:33:53;;;;;;;32.70;18.90;;;;;;;2.50;98.52;99151.81;5026158;28;20482;-74
2023/01/18 11:36:31;;;;;;;44.58;19.02;;;;;;;2.36;98.08;99141.66;5016699;28;20045;-75
2023/01/18 11:39:23;;;;;;;42.45;18.42;;;;;;;2.52;99.70;99138.31;5031507;28;20024;-74
2023/01/18 11:41:49;;;;;;;37.70;19.05;;;;;;;2.58;98.84;99153.75;5026995;28;20025;-76
2023/01/18 11:44:27;;;;;;;43.28;18.92;;;;;;;2.58;97.63;99143.91;5031842;28;20017;-76
2023/01/18 11:46:54;;;;;;;44.95;18.05;;;;;;;2.38;99.56;99153.00;5047012;28;20035;-74
2023/01/18 11:49:45;;;;;;;45.78;19.50;;;;;;;2.66;98.73;99145.81;5016596;28;20060;-74
2023/01/18 11:52:25;;;;;;;33.88;17.63;;;;;;;2.80;97.80;99139.94;5024996;28;20028;-76
2023/01/18 11:54:58;;;;;;;39.97;19.38;;;;;;;2.84;97.98;99136.00;5046590;28;20033;-73